createdAt,value
2023-03-19T00:02:17.025Z,9.77
2023-03-19T00:04:46.767Z,9.73
2023-03-19T00:07:15.842Z,9.67
2023-03-19T00:09:43.902Z,9.62
2023-03-19T00:12:12.115Z,9.55
2023-03-19T00:14:38.719Z,9.51
2023-03-19T00:17:05.265Z,9.47
2023-03-19T00:19:31.952Z,9.42
2023-03-19T00:21:58.775Z,9.40
2023-03-19T00:24:25.835Z,9.38
2023-03-19T00:26:53.106Z,9.34
2023-03-19T00:29:19.839Z,9.32
2023-03-19T00:31:47.721Z,9.31
2023-03-19T00:34:14.438Z,9.33
2023-03-19T00:36:41.027Z,9.36
2023-03-19T00:39:08.997Z,9.40
2023-03-19T00:41:35.971Z,9.41
2023-03-19T00:44:04.074Z,9.42
2023-03-19T00:46:31.011Z,9.42
2023-03-19T00:48:58.930Z,9.42
2023-03-19T00:51:26.387Z,9.42
2023-03-19T00:53:54.113Z,9.42
2023-03-19T00:56:20.920Z,9.40
2023-03-19T00:58:47.848Z,9.40
2023-03-19T01:01:17.831Z,9.41
2023-03-19T01:03:47.567Z,9.40
2023-03-19T01:06:14.280Z,9.40
2023-03-19T01:08:41.358Z,9.40
2023-03-19T01:11:17.148Z,9.39
2023-03-19T01:13:43.811Z,9.36
2023-03-19T01:16:10.503Z,9.32
2023-03-19T01:18:37.984Z,9.29
2023-03-19T01:21:05.573Z,9.27
2023-03-19T01:23:34.096Z,9.24
2023-03-19T01:26:01.082Z,9.23
2023-03-19T01:28:29.188Z,9.23
2023-03-19T01:31:02.195Z,9.23
2023-03-19T01:33:42.830Z,9.23
2023-03-19T01:36:44.944Z,9.23
2023-03-19T01:39:12.712Z,9.24
2023-03-19T01:41:39.632Z,9.27
2023-03-19T01:44:35.777Z,9.27
2023-03-19T01:47:31.613Z,9.28
2023-03-19T01:50:53.909Z,9.32
2023-03-19T01:53:42.052Z,9.34
2023-03-19T01:56:32.726Z,9.35
2023-03-19T01:59:26.988Z,9.34
2023-03-19T02:02:27.468Z,9.32
2023-03-19T02:05:08.272Z,9.32
2023-03-19T02:07:37.239Z,9.33
2023-03-19T02:10:08.376Z,9.32
2023-03-19T02:12:35.332Z,9.34
2023-03-19T02:15:02.056Z,9.36
2023-03-19T02:17:29.520Z,9.36
2023-03-19T02:20:21.402Z,9.40
2023-03-19T02:23:33.382Z,9.44
2023-03-19T02:26:14.175Z,9.49
2023-03-19T02:28:44.272Z,9.53
2023-03-19T02:31:13.223Z,9.57
2023-03-19T02:33:40.593Z,9.59
2023-03-19T02:36:13.517Z,9.59
2023-03-19T02:38:43.043Z,9.58
2023-03-19T02:41:10.570Z,9.57
2023-03-19T02:43:40.867Z,9.55
2023-03-19T02:46:12.050Z,9.54
2023-03-19T02:48:41.465Z,9.52
2023-03-19T02:51:08.700Z,9.51
2023-03-19T02:53:35.492Z,9.51
2023-03-19T02:56:02.471Z,9.51
2023-03-19T02:58:29.129Z,9.53
2023-03-19T03:00:55.955Z,9.54
2023-03-19T03:03:22.737Z,9.54
2023-03-19T03:05:49.548Z,9.54
2023-03-19T03:08:16.188Z,9.55
2023-03-19T03:10:42.856Z,9.53
2023-03-19T03:13:09.536Z,9.52
2023-03-19T03:15:36.276Z,9.49
2023-03-19T03:18:03.029Z,9.42
2023-03-19T03:20:30.028Z,9.38
2023-03-19T03:22:56.664Z,9.36
2023-03-19T03:25:23.313Z,9.34
2023-03-19T03:27:50.073Z,9.32
2023-03-19T03:30:16.995Z,9.32
2023-03-19T03:32:44.213Z,9.32
2023-03-19T03:35:11.275Z,9.31
2023-03-19T03:37:38.254Z,9.30
2023-03-19T03:40:08.535Z,9.29
2023-03-19T03:42:37.593Z,9.28
2023-03-19T03:45:05.270Z,9.29
2023-03-19T03:47:32.598Z,9.32
2023-03-19T03:49:59.621Z,9.33
2023-03-19T03:52:31.444Z,9.32
2023-03-19T03:54:58.633Z,9.36
2023-03-19T03:57:26.331Z,9.42
2023-03-19T03:59:54.126Z,9.48
2023-03-19T04:02:21.838Z,9.52
2023-03-19T04:04:49.462Z,9.55
2023-03-19T04:07:16.460Z,9.56
2023-03-19T04:09:50.936Z,9.57
2023-03-19T04:12:18.042Z,9.56
2023-03-19T04:14:44.768Z,9.55
2023-03-19T04:17:12.299Z,9.51
2023-03-19T04:19:39.113Z,9.46
2023-03-19T04:22:07.965Z,9.43
2023-03-19T04:24:35.008Z,9.38
2023-03-19T04:27:02.561Z,9.35
2023-03-19T04:29:29.503Z,9.33
2023-03-19T04:31:57.170Z,9.29
2023-03-19T04:34:24.953Z,9.26
2023-03-19T04:36:51.989Z,9.23
2023-03-19T04:39:19.788Z,9.19
2023-03-19T04:41:47.430Z,9.16
2023-03-19T04:44:25.254Z,9.14
2023-03-19T04:46:53.217Z,9.16
2023-03-19T04:49:20.949Z,9.18
2023-03-19T04:51:48.001Z,9.22
2023-03-19T04:54:15.327Z,9.27
2023-03-19T04:56:42.297Z,9.30
2023-03-19T04:59:10.672Z,9.32
2023-03-19T05:01:38.119Z,9.33
2023-03-19T05:04:08.588Z,9.34
2023-03-19T05:06:38.384Z,9.38
2023-03-19T05:09:07.741Z,9.36
2023-03-19T05:11:34.586Z,9.35
2023-03-19T05:14:08.820Z,9.34
2023-03-19T05:16:58.537Z,9.33
2023-03-19T05:19:26.431Z,9.32
2023-03-19T05:21:53.418Z,9.34
2023-03-19T05:24:24.862Z,9.35
2023-03-19T05:26:52.358Z,9.34
2023-03-19T05:29:28.551Z,9.33
2023-03-19T05:32:05.341Z,9.36
2023-03-19T05:34:33.231Z,9.40
2023-03-19T05:37:00.305Z,9.44
2023-03-19T05:39:27.876Z,9.47
2023-03-19T05:41:56.430Z,9.49
2023-03-19T05:44:26.511Z,9.50
2023-03-19T05:47:00.501Z,9.50
2023-03-19T05:49:30.048Z,9.48
2023-03-19T05:51:57.329Z,9.44
2023-03-19T05:54:23.902Z,9.41
2023-03-19T05:57:25.855Z,9.38
2023-03-19T06:00:16.389Z,9.35
2023-03-19T06:02:43.672Z,9.33
2023-03-19T06:05:30.597Z,9.30
2023-03-19T06:08:06.922Z,9.30
2023-03-19T06:10:53.274Z,9.35
2023-03-19T06:13:20.201Z,9.42
2023-03-19T06:15:58.699Z,9.50
2023-03-19T06:18:48.623Z,9.55
2023-03-19T06:21:15.959Z,9.58
2023-03-19T06:23:42.658Z,9.61
2023-03-19T06:26:11.160Z,9.63
2023-03-19T06:28:44.654Z,9.65
2023-03-19T06:31:12.612Z,9.65
2023-03-19T06:33:58.325Z,9.63
2023-03-19T06:36:30.476Z,9.60
2023-03-19T06:38:57.254Z,9.59
2023-03-19T06:41:25.225Z,9.59
2023-03-19T06:43:52.452Z,9.60
2023-03-19T06:46:19.193Z,9.63
2023-03-19T06:48:45.832Z,9.68
2023-03-19T06:51:12.332Z,9.72
2023-03-19T06:53:39.903Z,9.74
2023-03-19T06:56:06.565Z,9.78
2023-03-19T06:58:33.212Z,9.81
2023-03-19T07:00:59.859Z,9.85
2023-03-19T07:03:26.537Z,9.90
2023-03-19T07:05:53.371Z,9.94
2023-03-19T07:08:20.472Z,9.93
2023-03-19T07:10:47.175Z,9.96
2023-03-19T07:13:14.093Z,10.02
2023-03-19T07:15:41.132Z,10.09
2023-03-19T07:18:07.877Z,10.20
2023-03-19T07:20:34.629Z,10.30
2023-03-19T07:23:01.569Z,10.38
2023-03-19T07:25:28.221Z,10.43
2023-03-19T07:27:56.073Z,10.51
2023-03-19T07:30:24.371Z,10.60
2023-03-19T07:32:51.158Z,10.69
2023-03-19T07:35:18.010Z,10.79
2023-03-19T07:37:44.672Z,10.85
2023-03-19T07:40:11.770Z,10.89
2023-03-19T07:42:38.883Z,10.92
2023-03-19T07:45:06.890Z,10.96
2023-03-19T07:47:33.516Z,11.01
2023-03-19T07:50:00.790Z,11.09
2023-03-19T07:52:27.644Z,11.14
2023-03-19T07:54:54.381Z,11.23
2023-03-19T07:57:21.328Z,11.35
2023-03-19T07:59:47.989Z,11.45
2023-03-19T08:02:14.836Z,11.55
2023-03-19T08:04:42.189Z,11.64
2023-03-19T08:07:12.905Z,11.74
2023-03-19T08:09:40.734Z,11.82
2023-03-19T08:12:08.337Z,11.92
2023-03-19T08:14:35.773Z,12.01
2023-03-19T08:17:02.847Z,12.08
2023-03-19T08:19:29.781Z,12.12
2023-03-19T08:22:15.472Z,12.20
2023-03-19T08:24:42.110Z,12.29
2023-03-19T08:27:08.876Z,12.38
2023-03-19T08:29:35.753Z,12.46
2023-03-19T08:32:02.593Z,12.57
2023-03-19T08:34:29.285Z,12.65
2023-03-19T08:36:55.942Z,12.72
2023-03-19T08:39:22.643Z,12.79
2023-03-19T08:41:49.410Z,12.88
2023-03-19T08:44:16.284Z,12.97
2023-03-19T08:46:43.088Z,13.04
2023-03-19T08:49:09.929Z,13.13
2023-03-19T08:51:36.647Z,13.20
2023-03-19T08:54:03.430Z,13.26
2023-03-19T08:56:30.490Z,13.29
2023-03-19T08:58:57.792Z,13.34
2023-03-19T09:01:24.603Z,13.39
2023-03-19T09:03:51.399Z,13.44
2023-03-19T09:06:18.169Z,13.47
2023-03-19T09:08:45.006Z,13.49
2023-03-19T09:11:14.482Z,13.50
2023-03-19T09:13:41.225Z,13.52
2023-03-19T09:16:08.136Z,13.56
2023-03-19T09:18:35.722Z,13.62
2023-03-19T09:21:02.510Z,13.67
2023-03-19T09:23:29.638Z,13.71
2023-03-19T09:25:56.351Z,13.73
2023-03-19T09:28:23.401Z,13.75
2023-03-19T09:30:51.840Z,13.77
2023-03-19T09:33:20.769Z,13.77
2023-03-19T09:35:53.061Z,13.76
2023-03-19T09:38:21.896Z,13.76
2023-03-19T09:41:08.916Z,13.79
2023-03-19T09:43:49.523Z,13.85
2023-03-19T09:46:27.817Z,13.93
2023-03-19T09:49:00.933Z,14.00
2023-03-19T09:51:39.513Z,14.04
2023-03-19T09:54:20.258Z,14.05
2023-03-19T09:56:46.988Z,14.04
2023-03-19T09:59:13.806Z,14.05
2023-03-19T10:01:47.568Z,14.06
2023-03-19T10:04:42.656Z,14.07
2023-03-19T10:07:33.537Z,14.11
2023-03-19T10:10:18.683Z,14.20
2023-03-19T10:12:56.951Z,14.27
2023-03-19T10:15:29.673Z,14.38
2023-03-19T10:18:09.668Z,14.47
2023-03-19T10:20:58.264Z,14.58
2023-03-19T10:23:27.601Z,14.71
2023-03-19T10:25:57.095Z,14.80
2023-03-19T10:28:26.942Z,14.93
2023-03-19T10:31:26.010Z,15.08
2023-03-19T10:34:10.769Z,15.21
2023-03-19T10:36:38.794Z,15.32
2023-03-19T10:39:08.050Z,15.44
2023-03-19T10:41:57.770Z,15.58
2023-03-19T10:44:32.248Z,15.77
2023-03-19T10:47:00.304Z,15.92
2023-03-19T10:49:26.938Z,16.01
2023-03-19T10:51:57.440Z,16.12
2023-03-19T10:54:27.220Z,16.24
2023-03-19T10:56:59.207Z,16.35
2023-03-19T10:59:32.965Z,16.50
2023-03-19T11:02:15.672Z,16.65
2023-03-19T11:04:42.366Z,16.79
2023-03-19T11:07:12.557Z,16.91
2023-03-19T11:09:50.754Z,17.01
2023-03-19T11:12:34.669Z,17.12
2023-03-19T11:15:07.487Z,17.20
2023-03-19T11:17:38.200Z,17.28
2023-03-19T11:20:19.030Z,17.39
2023-03-19T11:22:46.973Z,17.49
2023-03-19T11:25:27.850Z,17.59
2023-03-19T11:28:02.134Z,17.69
2023-03-19T11:31:07.492Z,17.79
2023-03-19T11:34:16.831Z,17.86
2023-03-19T11:36:52.527Z,17.91
2023-03-19T11:39:35.815Z,18.01
2023-03-19T11:42:28.465Z,18.11
2023-03-19T11:45:11.753Z,18.14
2023-03-19T11:47:53.330Z,18.13
2023-03-19T11:50:38.830Z,18.11
2023-03-19T11:53:30.375Z,18.18
2023-03-19T11:56:26.727Z,18.18
2023-03-19T11:59:26.569Z,18.24
2023-03-19T12:02:18.275Z,18.30
2023-03-19T12:05:21.073Z,18.30
2023-03-19T12:08:02.358Z,18.35
2023-03-19T12:10:45.481Z,18.46
2023-03-19T12:13:40.961Z,18.51
2023-03-19T12:16:32.734Z,18.53
2023-03-19T12:19:23.591Z,18.53
2023-03-19T12:22:06.873Z,18.45
2023-03-19T12:24:54.355Z,18.40
2023-03-19T12:27:37.129Z,18.40
2023-03-19T12:30:23.072Z,18.41
2023-03-19T12:33:11.298Z,18.46
2023-03-19T12:35:40.966Z,18.32
2023-03-19T12:38:16.241Z,18.20
2023-03-19T12:41:10.744Z,18.05
2023-03-19T12:44:02.475Z,17.89
2023-03-19T12:46:33.505Z,17.78
2023-03-19T12:49:04.648Z,17.69
2023-03-19T12:51:44.131Z,17.61
2023-03-19T12:54:18.616Z,17.54
2023-03-19T12:57:09.189Z,17.47
2023-03-19T12:59:44.139Z,17.43
2023-03-19T13:02:34.589Z,17.40
2023-03-19T13:05:32.503Z,17.33
2023-03-19T13:08:27.782Z,17.29
2023-03-19T13:10:55.394Z,17.25
2023-03-19T13:13:31.122Z,17.24
2023-03-19T13:16:07.806Z,17.22
2023-03-19T13:18:59.428Z,17.19
2023-03-19T13:21:35.880Z,17.23
2023-03-19T13:24:25.383Z,17.31
2023-03-19T13:26:54.783Z,17.46
2023-03-19T13:29:21.710Z,17.58
2023-03-19T13:31:49.636Z,17.62
2023-03-19T13:34:27.557Z,17.67
2023-03-19T13:37:02.049Z,17.71
2023-03-19T13:39:32.923Z,17.74
2023-03-19T13:42:34.592Z,17.73
2023-03-19T13:45:04.446Z,17.68
2023-03-19T13:47:36.499Z,17.61
2023-03-19T13:50:10.945Z,17.54
2023-03-19T13:52:43.785Z,17.48
2023-03-19T13:55:28.675Z,17.42
2023-03-19T13:58:17.720Z,17.37
2023-03-19T14:00:45.172Z,17.34
2023-03-19T14:03:24.847Z,17.31
2023-03-19T14:05:54.344Z,17.31
2023-03-19T14:08:32.780Z,17.31
2023-03-19T14:11:00.303Z,17.30
2023-03-19T14:13:42.617Z,17.31
2023-03-19T14:16:26.479Z,17.31
2023-03-19T14:18:57.499Z,17.31
2023-03-19T14:21:47.006Z,17.31
2023-03-19T14:27:32.862Z,17.25
2023-03-19T14:30:10.529Z,17.21
2023-03-19T14:32:42.166Z,17.19
2023-03-19T14:35:16.445Z,17.15
2023-03-19T14:37:50.950Z,17.11
2023-03-19T14:40:37.276Z,17.07
2023-03-19T14:43:42.830Z,17.03
2023-03-19T14:46:26.757Z,17.00
2023-03-19T14:49:14.831Z,16.98
2023-03-19T14:51:57.719Z,16.95
2023-03-19T14:54:24.679Z,16.89
2023-03-19T14:56:51.625Z,16.84
2023-03-19T14:59:18.758Z,16.82
2023-03-19T15:01:51.823Z,16.79
2023-03-19T15:04:22.912Z,16.78
2023-03-19T15:06:59.109Z,16.74
2023-03-19T15:09:31.264Z,16.70
2023-03-19T15:12:28.215Z,16.66
2023-03-19T15:15:32.393Z,16.63
2023-03-19T15:18:04.678Z,16.57
2023-03-19T15:20:37.371Z,16.53
2023-03-19T15:23:16.605Z,16.50
2023-03-19T15:25:57.886Z,16.46
2023-03-19T15:28:28.210Z,16.44
2023-03-19T15:31:22.255Z,16.39
2023-03-19T15:33:51.223Z,16.34
2023-03-19T15:36:26.811Z,16.31
2023-03-19T15:38:56.002Z,16.26
2023-03-19T15:41:25.805Z,16.21
2023-03-19T15:43:53.825Z,16.17
2023-03-19T15:46:25.273Z,16.14
2023-03-19T15:49:17.574Z,16.10
2023-03-19T15:51:51.862Z,16.05
2023-03-19T15:54:19.949Z,16.00
2023-03-19T15:56:50.968Z,15.96
2023-03-19T15:59:20.613Z,15.91
2023-03-19T16:01:47.358Z,15.86
2023-03-19T16:04:22.669Z,15.81
2023-03-19T16:06:50.886Z,15.77
2023-03-19T16:09:25.406Z,15.71
2023-03-19T16:11:53.655Z,15.66
2023-03-19T16:14:41.262Z,15.62
2023-03-19T16:17:42.202Z,15.58
2023-03-19T16:20:14.074Z,15.54
2023-03-19T16:22:43.655Z,15.49
2023-03-19T16:25:21.347Z,15.45
2023-03-19T16:27:48.092Z,15.41
2023-03-19T16:30:27.905Z,15.37
2023-03-19T16:33:00.642Z,15.32
2023-03-19T16:35:30.389Z,15.27
2023-03-19T16:38:28.427Z,15.24
2023-03-19T16:41:23.162Z,15.19
2023-03-19T16:43:53.250Z,15.16
2023-03-19T16:46:19.931Z,15.13
2023-03-19T16:48:46.633Z,15.10
2023-03-19T16:51:18.176Z,15.06
2023-03-19T16:53:46.321Z,15.03
2023-03-19T16:56:15.065Z,15.01
2023-03-19T16:58:44.426Z,14.98
2023-03-19T17:01:18.190Z,14.96
2023-03-19T17:03:47.015Z,14.95
2023-03-19T17:06:14.705Z,14.92
2023-03-19T17:08:41.867Z,14.90
2023-03-19T17:11:31.362Z,14.88
2023-03-19T17:13:59.496Z,14.86
2023-03-19T17:16:29.912Z,14.84
2023-03-19T17:18:57.211Z,14.83
2023-03-19T17:21:41.943Z,14.82
2023-03-19T17:24:20.979Z,14.81
2023-03-19T17:26:47.860Z,14.80
2023-03-19T17:29:14.614Z,14.78
2023-03-19T17:31:41.516Z,14.77
2023-03-19T17:34:16.545Z,14.76
2023-03-19T17:36:50.686Z,14.75
2023-03-19T17:39:18.269Z,14.74
2023-03-19T17:41:45.995Z,14.73
2023-03-19T17:44:14.659Z,14.72
2023-03-19T17:46:53.190Z,14.71
2023-03-19T17:49:31.896Z,14.71
2023-03-19T17:51:59.384Z,14.70
2023-03-19T17:54:27.361Z,14.69
2023-03-19T17:56:55.357Z,14.67
2023-03-19T17:59:23.515Z,14.66
2023-03-19T18:01:50.797Z,14.64
2023-03-19T18:04:19.663Z,14.63
2023-03-19T18:06:51.248Z,14.61
2023-03-19T18:09:25.683Z,14.60
2023-03-19T18:11:53.089Z,14.57
2023-03-19T18:14:20.531Z,14.54
2023-03-19T18:16:47.332Z,14.50
2023-03-19T18:19:38.415Z,14.48
2023-03-19T18:22:17.205Z,14.46
2023-03-19T18:24:44.859Z,14.43
2023-03-19T18:27:12.578Z,14.41
2023-03-19T18:29:39.268Z,14.39
2023-03-19T18:32:26.046Z,14.38
2023-03-19T18:34:52.959Z,14.38
2023-03-19T18:37:19.979Z,14.39
2023-03-19T18:39:47.197Z,14.40
2023-03-19T18:42:14.805Z,14.37
2023-03-19T18:44:41.873Z,14.37
2023-03-19T18:47:17.445Z,14.35
2023-03-19T18:49:44.890Z,14.33
2023-03-19T18:52:14.422Z,14.31
2023-03-19T18:54:42.127Z,14.29
2023-03-19T18:57:13.006Z,14.26
2023-03-19T18:59:39.839Z,14.23
2023-03-19T19:02:31.335Z,14.21
2023-03-19T19:04:58.341Z,14.18
2023-03-19T19:07:24.965Z,14.14
2023-03-19T19:09:51.708Z,14.12
2023-03-19T19:12:19.043Z,14.09
2023-03-19T19:14:46.462Z,14.09
2023-03-19T19:17:29.255Z,14.11
2023-03-19T19:19:56.387Z,14.13
2023-03-19T19:22:23.090Z,14.13
2023-03-19T19:24:49.776Z,14.10
2023-03-19T19:27:25.896Z,14.06
2023-03-19T19:29:53.263Z,13.97
2023-03-19T19:32:25.027Z,13.86
2023-03-19T19:34:52.628Z,13.78
2023-03-19T19:37:23.202Z,13.76
2023-03-19T19:39:50.794Z,13.73
2023-03-19T19:42:20.308Z,13.72
2023-03-19T19:44:52.807Z,13.71
2023-03-19T19:47:19.485Z,13.71
2023-03-19T19:49:46.264Z,13.68
2023-03-19T19:52:17.786Z,13.66
2023-03-19T19:54:45.772Z,13.66
2023-03-19T19:57:24.698Z,13.64
2023-03-19T19:59:53.234Z,13.61
2023-03-19T20:02:21.794Z,13.58
2023-03-19T20:04:48.943Z,13.56
2023-03-19T20:07:15.973Z,13.54
2023-03-19T20:09:42.944Z,13.52
2023-03-19T20:12:20.462Z,13.51
2023-03-19T20:14:48.262Z,13.49
2023-03-19T20:17:17.305Z,13.50
2023-03-19T20:19:44.574Z,13.49
2023-03-19T20:22:11.375Z,13.49
2023-03-19T20:24:38.996Z,13.50
2023-03-19T20:27:16.554Z,13.53
2023-03-19T20:29:43.807Z,13.57
2023-03-19T20:32:40.449Z,13.62
2023-03-19T20:35:14.443Z,13.65
2023-03-19T20:37:41.586Z,13.65
2023-03-19T20:40:09.042Z,13.64
2023-03-19T20:42:36.220Z,13.64
2023-03-19T20:45:03.723Z,13.63
2023-03-19T20:47:33.207Z,13.59
2023-03-19T20:50:00.964Z,13.56
2023-03-19T20:52:27.758Z,13.51
2023-03-19T20:54:54.826Z,13.46
2023-03-19T20:57:30.863Z,13.43
2023-03-19T21:00:02.324Z,13.38
2023-03-19T21:02:30.378Z,13.36
2023-03-19T21:04:58.499Z,13.34
2023-03-19T21:07:34.872Z,13.34
2023-03-19T21:10:07.523Z,13.32
2023-03-19T21:12:37.574Z,13.29
2023-03-19T21:15:04.644Z,13.27
2023-03-19T21:17:31.376Z,13.24
2023-03-19T21:19:58.404Z,13.23
2023-03-19T21:22:30.730Z,13.21
2023-03-19T21:25:05.812Z,13.19
2023-03-19T21:27:35.771Z,13.19
2023-03-19T21:30:05.837Z,13.14
2023-03-19T21:32:33.279Z,13.10
2023-03-19T21:35:00.056Z,13.06
2023-03-19T21:37:26.791Z,13.04
2023-03-19T21:39:53.553Z,12.99
2023-03-19T21:42:22.825Z,12.95
2023-03-19T21:44:56.954Z,12.90
2023-03-19T21:47:23.615Z,12.86
2023-03-19T21:49:50.262Z,12.83
2023-03-19T21:52:19.729Z,12.83
2023-03-19T21:54:46.666Z,12.85
2023-03-19T21:57:15.055Z,12.84
2023-03-19T21:59:43.998Z,12.84
2023-03-19T22:02:23.265Z,12.82
2023-03-19T22:04:50.022Z,12.81
2023-03-19T22:07:18.036Z,12.80
2023-03-19T22:09:45.429Z,12.78
2023-03-19T22:12:27.629Z,12.76
2023-03-19T22:14:54.908Z,12.73
2023-03-19T22:17:24.097Z,12.70
2023-03-19T22:19:51.070Z,12.67
2023-03-19T22:22:17.886Z,12.67
2023-03-19T22:24:44.626Z,12.67
2023-03-19T22:27:17.129Z,12.65
2023-03-19T22:29:45.075Z,12.65
2023-03-19T22:32:19.151Z,12.64
2023-03-19T22:34:46.065Z,12.65
2023-03-19T22:37:30.732Z,12.67
2023-03-19T22:39:57.311Z,12.68
2023-03-19T22:42:26.707Z,12.67
2023-03-19T22:44:54.831Z,12.63
2023-03-19T22:47:24.783Z,12.57
2023-03-19T22:49:51.987Z,12.50
2023-03-19T22:52:18.605Z,12.43
2023-03-19T22:54:45.291Z,12.37
2023-03-19T22:57:16.802Z,12.32
2023-03-19T22:59:44.118Z,12.28
2023-03-19T23:02:14.121Z,12.22
2023-03-19T23:04:41.543Z,12.17
2023-03-19T23:07:12.707Z,12.11
2023-03-19T23:09:39.614Z,12.05
2023-03-19T23:14:34.173Z,11.95
2023-03-19T23:17:03.987Z,11.92
2023-03-19T23:19:32.223Z,11.90
2023-03-19T23:21:59.714Z,11.86
2023-03-19T23:24:27.963Z,11.81
2023-03-19T23:26:56.844Z,11.79
2023-03-19T23:29:34.470Z,11.75
2023-03-19T23:32:01.429Z,11.68
2023-03-19T23:34:33.518Z,11.64
2023-03-19T23:37:02.713Z,11.61
2023-03-19T23:39:29.413Z,11.59
2023-03-19T23:41:58.684Z,11.57
2023-03-19T23:44:29.050Z,11.54
2023-03-19T23:46:59.746Z,11.50
2023-03-19T23:49:33.047Z,11.48
2023-03-19T23:52:02.045Z,11.48
2023-03-19T23:54:34.774Z,11.47
2023-03-19T23:57:06.649Z,11.45
2023-03-19T23:59:36.846Z,11.42
